Time;durP1;ratioP1;P1;durP2;ratioP2;P2;SDS_P1;SDS_P2;PMS_P1;PMS_P2;Temp;Humidity;BMP_temperature;BMP_pressure;BME280_temperature;BME280_humidity;BME280_pressure;Samples;Min_cycle;Max_cycle;Signal;HPM_P1;HPM_P2
2021/01/28 00:00:56;;;;;;;23.08;14.32;;;1.70;99.90;;;;;;5071004;28;20051;-66
2021/01/28 00:03:23;;;;;;;24.27;14.93;;;1.80;99.90;;;;;;5072145;28;20128;-65
2021/01/28 00:05:49;;;;;;;23.10;14.55;;;1.80;99.90;;;;;;5072267;28;20440;-65
2021/01/28 00:08:16;;;;;;;22.58;13.48;;;1.80;99.90;;;;;;5072895;28;20509;-65
2021/01/28 00:10:43;;;;;;;23.95;14.30;;;1.70;99.90;;;;;;5071085;28;20048;-65
2021/01/28 00:13:11;;;;;;;23.75;14.27;;;1.70;99.90;;;;;;5072221;28;20482;-65
2021/01/28 00:15:38;;;;;;;22.85;13.98;;;1.60;99.90;;;;;;5072978;28;20079;-64
2021/01/28 00:18:08;;;;;;;23.55;13.85;;;1.70;99.90;;;;;;5072733;28;20049;-65
2021/01/28 00:20:36;;;;;;;23.38;14.10;;;1.70;99.90;;;;;;5072978;28;20036;-65
2021/01/28 00:23:04;;;;;;;25.02;14.05;;;1.70;99.90;;;;;;5071964;28;20102;-65
2021/01/28 00:25:32;;;;;;;20.63;13.38;;;1.70;99.90;;;;;;5065799;28;20109;-65
2021/01/28 00:27:58;;;;;;;28.50;14.73;;;1.70;99.90;;;;;;5072269;28;20064;-65
2021/01/28 00:30:38;;;;;;;24.92;14.73;;;1.70;99.90;;;;;;5072784;28;20044;-66
2021/01/28 00:33:06;;;;;;;23.30;14.23;;;1.70;99.90;;;;;;5071301;28;20106;-65
2021/01/28 00:35:42;;;;;;;25.73;15.20;;;1.70;99.90;;;;;;5071447;28;20329;-65
2021/01/28 00:38:17;;;;;;;24.30;14.63;;;1.70;99.90;;;;;;5072835;28;20388;-64
2021/01/28 00:40:43;;;;;;;25.02;14.48;;;1.70;99.90;;;;;;5071564;28;20200;-65
2021/01/28 00:43:10;;;;;;;23.48;12.98;;;1.60;99.90;;;;;;5071659;28;20138;-65
2021/01/28 00:45:37;;;;;;;25.25;15.05;;;1.60;99.90;;;;;;5070202;28;20072;-65
2021/01/28 00:48:05;;;;;;;23.27;14.13;;;1.70;99.90;;;;;;5072142;28;20082;-65
2021/01/28 00:50:33;;;;;;;23.35;14.10;;;1.60;99.90;;;;;;5071963;28;20048;-65
2021/01/28 00:53:00;;;;;;;22.88;13.35;;;1.60;99.90;;;;;;5070782;28;20475;-65
2021/01/28 00:55:26;;;;;;;31.45;17.58;;;1.60;99.90;;;;;;5072105;28;20044;-65
2021/01/28 00:57:53;;;;;;;24.30;14.80;;;1.60;99.90;;;;;;5071497;28;20051;-65
2021/01/28 01:00:23;;;;;;;24.20;13.65;;;1.70;99.90;;;;;;5072147;28;20486;-65
2021/01/28 01:02:49;;;;;;;25.45;13.82;;;1.70;99.90;;;;;;5070973;28;20056;-64
2021/01/28 01:05:19;;;;;;;25.83;14.48;;;1.70;99.90;;;;;;5071900;28;20122;-64
2021/01/28 01:07:46;;;;;;;27.13;13.98;;;1.70;99.90;;;;;;5071239;28;20396;-64
2021/01/28 01:10:35;;;;;;;25.17;13.98;;;1.70;99.90;;;;;;5072013;28;20047;-65
2021/01/28 01:13:02;;;;;;;25.52;14.32;;;1.70;99.90;;;;;;5071428;28;20410;-65
2021/01/28 01:15:29;;;;;;;26.42;14.25;;;1.80;99.90;;;;;;5071738;28;20129;-65
2021/01/28 01:17:55;;;;;;;28.13;14.68;;;1.70;99.90;;;;;;5071156;28;20051;-65
2021/01/28 01:20:23;;;;;;;27.70;15.57;;;1.70;99.90;;;;;;5071987;28;20396;-64
2021/01/28 01:22:52;;;;;;;26.90;14.40;;;1.80;99.90;;;;;;5070831;28;20054;-64
2021/01/28 01:25:19;;;;;;;25.77;14.65;;;1.80;99.90;;;;;;5071714;28;20052;-64
2021/01/28 01:27:48;;;;;;;25.10;13.82;;;1.70;99.90;;;;;;5070273;28;20080;-65
2021/01/28 01:30:18;;;;;;;26.45;14.98;;;1.80;99.90;;;;;;5071301;28;20090;-65
2021/01/28 01:32:44;;;;;;;25.73;14.85;;;1.80;99.90;;;;;;5071323;28;20050;-65
2021/01/28 01:35:13;;;;;;;26.45;15.10;;;1.80;99.90;;;;;;5071260;28;20041;-64
2021/01/28 01:37:40;;;;;;;26.67;15.00;;;1.80;99.90;;;;;;5064034;28;20431;-65
2021/01/28 01:40:13;;;;;;;24.73;13.68;;;1.90;99.90;;;;;;5071089;28;20051;-64
2021/01/28 01:42:47;;;;;;;25.67;15.40;;;1.90;99.90;;;;;;5070759;28;20052;-65
2021/01/28 01:45:14;;;;;;;24.98;14.73;;;1.90;99.90;;;;;;5070617;28;20131;-64
2021/01/28 01:47:48;;;;;;;23.50;14.43;;;1.90;99.90;;;;;;5070771;28;20128;-64
2021/01/28 01:50:37;;;;;;;27.73;15.32;;;1.90;99.90;;;;;;5069792;28;20413;-64
2021/01/28 01:53:09;;;;;;;29.83;15.88;;;1.90;99.90;;;;;;5069773;28;20084;-64
2021/01/28 01:55:37;;;;;;;27.25;15.55;;;1.90;99.90;;;;;;5070833;28;20485;-64
2021/01/28 01:58:07;;;;;;;25.58;14.57;;;1.90;99.90;;;;;;5070658;28;20044;-64
2021/01/28 02:00:33;;;;;;;26.75;14.98;;;1.90;99.90;;;;;;5070993;28;20457;-64
2021/01/28 02:03:06;;;;;;;30.13;15.55;;;1.90;99.90;;;;;;5070722;28;20157;-64
2021/01/28 02:05:38;;;;;;;25.85;15.07;;;1.90;99.90;;;;;;5071114;28;20120;-64
2021/01/28 02:08:05;;;;;;;26.48;15.30;;;2.00;99.90;;;;;;5071147;28;20052;-64
2021/01/28 02:10:32;;;;;;;29.08;16.05;;;2.00;99.90;;;;;;5071026;28;20044;-64
2021/01/28 02:13:00;;;;;;;26.65;15.38;;;2.00;99.90;;;;;;5070252;28;20041;-64
2021/01/28 02:15:27;;;;;;;26.15;14.88;;;2.00;99.90;;;;;;5069452;28;20048;-64
2021/01/28 02:17:58;;;;;;;28.55;15.55;;;2.10;99.90;;;;;;5070224;28;20064;-64
2021/01/28 02:20:55;;;;;;;26.02;15.32;;;2.00;99.90;;;;;;5071240;28;20477;-64
2021/01/28 02:23:46;;;;;;;23.52;14.13;;;2.00;99.90;;;;;;5064250;28;20056;-64
2021/01/28 02:26:12;;;;;;;25.77;15.00;;;2.00;99.90;;;;;;5070310;28;20090;-64
2021/01/28 02:28:39;;;;;;;26.35;14.60;;;2.00;99.90;;;;;;5069411;28;20045;-64
2021/01/28 02:31:06;;;;;;;28.05;15.38;;;2.00;99.90;;;;;;5070238;28;20048;-64
2021/01/28 02:33:35;;;;;;;25.70;14.90;;;2.00;99.90;;;;;;5070916;28;20063;-64
2021/01/28 02:36:03;;;;;;;25.95;15.38;;;2.00;99.90;;;;;;5062357;28;20471;-65
2021/01/28 02:38:34;;;;;;;28.00;14.98;;;2.00;99.90;;;;;;5070734;28;20059;-64
2021/01/28 02:41:01;;;;;;;27.33;14.98;;;2.00;99.90;;;;;;5068789;28;20062;-64
2021/01/28 02:43:28;;;;;;;28.90;15.98;;;2.00;99.90;;;;;;5070015;28;20052;-64
2021/01/28 02:46:07;;;;;;;26.88;15.50;;;2.00;99.90;;;;;;5070387;28;20054;-65
2021/01/28 02:48:34;;;;;;;30.08;16.10;;;2.00;99.90;;;;;;5064174;28;20047;-64
2021/01/28 02:51:01;;;;;;;27.63;16.33;;;2.00;99.90;;;;;;5069786;28;20411;-64
2021/01/28 02:53:39;;;;;;;30.63;17.50;;;2.00;99.90;;;;;;5069184;28;20619;-64
2021/01/28 02:56:07;;;;;;;27.98;14.98;;;2.10;99.90;;;;;;5066198;28;20041;-64
2021/01/28 02:58:33;;;;;;;27.48;15.15;;;2.10;99.90;;;;;;5054073;28;20041;-65
2021/01/28 03:01:00;;;;;;;28.48;16.15;;;2.00;99.90;;;;;;5053934;28;20052;-65
2021/01/28 03:03:27;;;;;;;27.95;15.70;;;2.10;99.90;;;;;;5054363;28;20045;-65
2021/01/28 03:05:54;;;;;;;28.38;15.30;;;2.10;99.90;;;;;;5066487;28;20048;-65
2021/01/28 03:08:23;;;;;;;25.60;13.90;;;2.10;99.90;;;;;;5074056;28;20059;-64
2021/01/28 03:10:51;;;;;;;28.38;15.52;;;2.20;99.90;;;;;;5073976;28;20056;-64
2021/01/28 03:13:18;;;;;;;28.20;14.57;;;2.20;99.90;;;;;;5073097;28;20051;-65
2021/01/28 03:15:45;;;;;;;28.35;16.33;;;2.20;99.90;;;;;;5074562;28;20048;-65
2021/01/28 03:18:12;;;;;;;29.98;15.65;;;2.20;99.90;;;;;;5073585;28;20041;-64
2021/01/28 03:20:38;;;;;;;29.73;15.88;;;2.20;99.90;;;;;;5066463;28;20076;-64
2021/01/28 03:23:05;;;;;;;29.63;15.60;;;2.20;99.90;;;;;;5072659;28;20048;-64
2021/01/28 03:25:32;;;;;;;25.67;14.55;;;2.20;99.90;;;;;;5073277;28;20052;-64
2021/01/28 03:27:59;;;;;;;28.83;15.43;;;2.20;99.90;;;;;;5073800;28;20052;-64
2021/01/28 03:30:32;;;;;;;25.88;14.60;;;2.20;99.90;;;;;;5072944;28;20053;-63
2021/01/28 03:33:00;;;;;;;25.55;13.95;;;2.20;99.90;;;;;;5073369;28;20419;-64
2021/01/28 03:35:26;;;;;;;24.83;15.07;;;2.20;99.90;;;;;;5072975;28;20094;-65
2021/01/28 03:37:53;;;;;;;24.02;13.73;;;2.20;99.90;;;;;;5072762;28;20120;-64
2021/01/28 03:40:23;;;;;;;23.23;13.95;;;2.20;99.90;;;;;;5072797;28;20056;-65
2021/01/28 03:42:49;;;;;;;24.85;14.10;;;2.20;99.90;;;;;;5073156;28;20048;-64
2021/01/28 03:45:16;;;;;;;27.10;14.15;;;2.30;99.90;;;;;;5073625;28;20059;-64
2021/01/28 03:47:43;;;;;;;21.60;12.82;;;2.20;99.90;;;;;;5066031;28;20537;-64
2021/01/28 03:50:12;;;;;;;24.80;13.30;;;2.30;99.90;;;;;;5073081;28;20125;-64
2021/01/28 03:52:38;;;;;;;23.30;13.27;;;2.20;99.90;;;;;;5071706;28;20052;-65
2021/01/28 03:55:06;;;;;;;25.10;13.73;;;2.30;99.90;;;;;;5068795;28;20541;-64
2021/01/28 03:57:32;;;;;;;24.10;12.13;;;2.30;99.90;;;;;;5064968;28;20045;-64
2021/01/28 03:59:59;;;;;;;22.17;12.57;;;2.20;99.90;;;;;;5072751;28;20063;-64
2021/01/28 04:02:25;;;;;;;22.77;13.27;;;2.20;99.90;;;;;;5073208;28;20084;-65
2021/01/28 04:04:52;;;;;;;23.40;12.82;;;2.30;99.90;;;;;;5071808;28;20048;-65
2021/01/28 04:07:18;;;;;;;25.25;13.13;;;2.30;99.90;;;;;;5070957;28;20059;-64
2021/01/28 04:09:45;;;;;;;22.70;12.75;;;2.30;99.90;;;;;;5070985;28;20048;-65
2021/01/28 04:12:11;;;;;;;24.38;13.40;;;2.40;99.90;;;;;;5072743;28;20493;-64
2021/01/28 04:14:37;;;;;;;21.90;12.40;;;2.40;99.90;;;;;;5070835;28;20505;-65
2021/01/28 04:17:04;;;;;;;28.30;13.50;;;2.30;99.90;;;;;;5067486;28;20082;-64
2021/01/28 04:19:31;;;;;;;22.90;13.18;;;2.30;99.90;;;;;;5064041;28;20119;-64
2021/01/28 04:21:59;;;;;;;23.80;12.70;;;2.30;99.90;;;;;;5071700;28;20438;-65
2021/01/28 04:24:30;;;;;;;24.45;13.32;;;2.30;99.90;;;;;;5073186;28;20052;-64
2021/01/28 04:26:56;;;;;;;22.10;12.70;;;2.30;99.90;;;;;;5068178;28;20052;-64
2021/01/28 04:29:23;;;;;;;24.77;14.25;;;2.30;99.90;;;;;;5073154;28;20052;-64
2021/01/28 04:31:49;;;;;;;27.20;14.02;;;2.30;99.90;;;;;;5071794;28;20059;-65
2021/01/28 04:34:16;;;;;;;25.05;12.77;;;2.30;99.90;;;;;;5071650;28;20044;-64
2021/01/28 04:36:42;;;;;;;23.98;12.65;;;2.30;99.90;;;;;;5071327;28;20627;-64
2021/01/28 04:39:09;;;;;;;27.35;12.40;;;2.30;99.90;;;;;;5072579;28;20037;-65
2021/01/28 04:41:36;;;;;;;25.88;12.63;;;2.30;99.90;;;;;;5064574;28;20063;-65
2021/01/28 04:44:05;;;;;;;22.83;12.93;;;2.30;99.90;;;;;;5071186;28;20100;-64
2021/01/28 04:46:41;;;;;;;24.92;11.80;;;2.30;99.90;;;;;;5072148;28;20051;-64
2021/01/28 04:49:12;;;;;;;24.30;12.50;;;2.30;99.90;;;;;;5071252;28;20086;-64
2021/01/28 04:51:42;;;;;;;21.77;11.38;;;2.40;99.90;;;;;;5071181;28;20044;-65
2021/01/28 04:54:25;;;;;;;21.35;11.63;;;2.30;99.90;;;;;;5071361;28;20049;-63
2021/01/28 04:56:54;;;;;;;25.65;13.82;;;2.30;99.90;;;;;;5071028;28;20048;-64
2021/01/28 04:59:52;;;;;;;24.35;12.40;;;2.40;99.90;;;;;;5071825;28;20049;-64
2021/01/28 05:02:25;;;;;;;25.05;12.20;;;2.40;99.90;;;;;;5070861;28;20479;-64
2021/01/28 05:04:54;;;;;;;21.95;12.02;;;2.40;99.90;;;;;;5071442;28;20048;-65
2021/01/28 05:07:30;;;;;;;24.52;11.55;;;2.30;99.90;;;;;;5060055;28;20469;-64
2021/01/28 05:10:20;;;;;;;25.25;11.90;;;2.40;99.90;;;;;;5071337;28;20048;-64
2021/01/28 05:12:55;;;;;;;23.08;11.20;;;2.40;99.90;;;;;;5063763;28;20455;-64
2021/01/28 05:15:25;;;;;;;23.42;12.68;;;2.40;99.90;;;;;;5071198;28;20127;-64
2021/01/28 05:18:09;;;;;;;21.45;12.15;;;2.40;99.90;;;;;;5068615;28;20574;-64
2021/01/28 05:20:37;;;;;;;19.50;11.45;;;2.40;99.90;;;;;;5071107;28;20048;-65
2021/01/28 05:23:30;;;;;;;22.08;12.10;;;2.50;99.90;;;;;;5070948;28;20495;-64
2021/01/28 05:25:57;;;;;;;23.83;11.98;;;2.50;99.90;;;;;;5065020;28;20052;-65
2021/01/28 05:28:37;;;;;;;24.27;12.18;;;2.50;99.90;;;;;;5070012;28;20059;-65
2021/01/28 05:31:04;;;;;;;22.17;11.98;;;2.50;99.90;;;;;;5069323;28;20048;-64
2021/01/28 05:33:41;;;;;;;25.17;11.88;;;2.50;99.90;;;;;;5070637;28;20044;-65
2021/01/28 05:36:23;;;;;;;25.13;13.13;;;2.50;99.90;;;;;;5070930;28;20048;-63
2021/01/28 05:38:52;;;;;;;22.45;13.35;;;2.50;99.90;;;;;;5070832;28;20056;-64
2021/01/28 05:41:45;;;;;;;26.83;12.55;;;2.60;99.90;;;;;;5071318;28;20066;-64
2021/01/28 05:44:29;;;;;;;22.63;12.07;;;2.60;99.90;;;;;;5067942;28;20045;-64
2021/01/28 05:47:10;;;;;;;22.83;12.60;;;2.60;99.90;;;;;;5065358;28;20045;-65
2021/01/28 05:49:42;;;;;;;22.90;12.18;;;2.60;99.90;;;;;;5054909;28;20049;-64
2021/01/28 05:52:28;;;;;;;29.05;13.93;;;2.60;99.90;;;;;;5069449;28;20051;-64
2021/01/28 05:55:07;;;;;;;23.15;12.52;;;2.70;99.90;;;;;;5069852;28;20521;-64
2021/01/28 05:57:52;;;;;;;23.08;12.73;;;2.70;99.90;;;;;;5070049;28;20050;-64
2021/01/28 06:00:25;;;;;;;24.33;12.70;;;2.70;99.90;;;;;;5062905;28;20036;-64
2021/01/28 06:03:22;;;;;;;23.63;12.07;;;2.70;99.90;;;;;;5059242;28;20464;-64
2021/01/28 06:06:23;;;;;;;25.35;12.45;;;2.70;99.90;;;;;;5068974;28;20056;-64
2021/01/28 06:09:16;;;;;;;24.58;11.60;;;2.70;99.90;;;;;;5070849;28;20058;-64
2021/01/28 06:12:13;;;;;;;21.25;11.43;;;2.70;99.90;;;;;;5068785;28;20049;-64
2021/01/28 06:15:06;;;;;;;25.30;12.52;;;2.70;99.90;;;;;;5063513;28;20063;-64
2021/01/28 06:17:55;;;;;;;26.85;15.30;;;2.70;99.90;;;;;;5052898;28;20040;-65
2021/01/28 06:20:43;;;;;;;25.92;13.35;;;2.70;99.90;;;;;;5057202;28;20470;-65
2021/01/28 06:23:18;;;;;;;24.90;12.95;;;2.70;99.90;;;;;;5070673;28;20649;-64
2021/01/28 06:26:22;;;;;;;22.45;12.73;;;2.70;99.90;;;;;;5068439;28;20048;-64
2021/01/28 06:29:10;;;;;;;25.80;13.50;;;2.70;99.90;;;;;;5068725;28;20052;-63
2021/01/28 06:32:01;;;;;;;23.80;12.93;;;2.70;99.90;;;;;;5061288;28;20348;-64
2021/01/28 06:34:40;;;;;;;24.70;12.63;;;2.70;99.90;;;;;;5058860;28;20124;-64
2021/01/28 06:37:35;;;;;;;21.35;11.98;;;2.60;99.90;;;;;;5065862;28;20048;-64
2021/01/28 06:40:05;;;;;;;23.23;11.70;;;2.70;99.90;;;;;;5061422;28;20513;-64
2021/01/28 06:42:45;;;;;;;22.75;12.48;;;2.70;99.90;;;;;;5066865;28;20076;-65
2021/01/28 06:45:25;;;;;;;24.70;13.05;;;2.60;99.90;;;;;;5063180;28;20057;-64
2021/01/28 06:48:00;;;;;;;26.15;13.60;;;2.60;99.90;;;;;;5067862;28;20075;-65
2021/01/28 06:50:32;;;;;;;27.23;14.65;;;2.70;99.90;;;;;;5069052;28;20040;-65
2021/01/28 06:53:18;;;;;;;22.15;13.75;;;2.70;99.90;;;;;;5068783;28;20058;-65
2021/01/28 06:56:20;;;;;;;27.92;14.25;;;2.70;99.90;;;;;;5066016;28;20053;-64
2021/01/28 06:59:07;;;;;;;26.38;13.60;;;2.70;99.90;;;;;;5059028;28;20045;-64
2021/01/28 07:01:38;;;;;;;27.08;15.30;;;2.80;99.90;;;;;;5070380;28;20469;-64
2021/01/28 07:04:29;;;;;;;22.85;13.20;;;2.80;99.90;;;;;;5070458;28;20049;-64
2021/01/28 07:07:21;;;;;;;24.48;12.93;;;2.80;99.90;;;;;;5069854;28;20135;-65
2021/01/28 07:09:54;;;;;;;22.27;12.65;;;2.80;99.90;;;;;;5066370;28;20056;-65
2021/01/28 07:12:36;;;;;;;22.50;13.30;;;2.80;99.90;;;;;;5069701;28;20049;-65
2021/01/28 07:15:05;;;;;;;25.67;13.13;;;2.80;99.90;;;;;;5069794;28;20042;-64
2021/01/28 07:17:37;;;;;;;24.55;13.23;;;2.70;99.90;;;;;;5069775;28;20496;-64
2021/01/28 07:20:31;;;;;;;22.33;12.70;;;2.80;99.90;;;;;;5070028;28;20048;-64
2021/01/28 07:23:39;;;;;;;24.92;13.85;;;2.70;99.90;;;;;;5068660;28;20053;-65
2021/01/28 07:26:14;;;;;;;27.38;13.68;;;2.70;99.90;;;;;;5042186;28;20064;-66
2021/01/28 07:28:42;;;;;;;25.17;13.80;;;2.80;99.90;;;;;;5047261;28;20053;-65
2021/01/28 07:31:21;;;;;;;24.88;13.88;;;2.70;99.90;;;;;;5047176;28;20053;-66
2021/01/28 07:33:47;;;;;;;29.90;15.43;;;2.80;99.90;;;;;;5047202;28;20067;-64
2021/01/28 07:36:22;;;;;;;29.15;15.80;;;2.80;99.90;;;;;;5045856;28;20423;-64
2021/01/28 07:38:57;;;;;;;26.02;14.13;;;2.80;99.90;;;;;;5044575;28;20052;-65
2021/01/28 07:41:29;;;;;;;27.27;13.45;;;2.80;99.90;;;;;;5038282;28;20048;-65
2021/01/28 07:44:24;;;;;;;23.15;13.10;;;2.80;99.90;;;;;;5047709;28;20501;-65
2021/01/28 07:46:54;;;;;;;24.50;13.75;;;2.90;99.90;;;;;;5042476;28;20147;-65
2021/01/28 07:49:26;;;;;;;26.25;14.50;;;2.90;99.90;;;;;;5050017;28;20130;-65
2021/01/28 07:52:16;;;;;;;25.67;14.32;;;2.90;99.90;;;;;;5048527;28;20435;-66
2021/01/28 07:54:47;;;;;;;26.75;14.70;;;3.00;99.90;;;;;;5050170;28;20708;-65
2021/01/28 07:57:28;;;;;;;29.83;16.33;;;3.00;99.90;;;;;;5050104;28;20063;-65
2021/01/28 08:00:04;;;;;;;25.40;13.75;;;3.00;99.90;;;;;;5059286;28;20514;-65
2021/01/28 08:02:37;;;;;;;24.00;13.80;;;3.10;99.90;;;;;;5072831;28;20052;-65
2021/01/28 08:05:03;;;;;;;22.67;13.50;;;3.10;99.90;;;;;;5072758;28;20055;-66
2021/01/28 08:07:39;;;;;;;25.98;13.60;;;3.20;99.90;;;;;;5072124;28;20060;-65
2021/01/28 08:10:26;;;;;;;27.67;14.63;;;3.20;99.90;;;;;;5071839;28;20052;-65
2021/01/28 08:12:56;;;;;;;24.65;13.70;;;3.20;99.90;;;;;;5059817;28;20041;-66
2021/01/28 08:15:34;;;;;;;27.55;14.35;;;3.20;99.90;;;;;;5070463;28;20511;-65
2021/01/28 08:18:10;;;;;;;24.08;13.70;;;3.20;99.90;;;;;;5070178;28;20507;-66
2021/01/28 08:20:37;;;;;;;26.08;14.57;;;3.20;99.90;;;;;;5070688;28;20045;-66
2021/01/28 08:23:13;;;;;;;28.25;14.55;;;3.20;99.90;;;;;;5071366;28;20087;-65
2021/01/28 08:25:56;;;;;;;25.92;14.13;;;3.20;99.90;;;;;;5072441;28;20480;-69
2021/01/28 08:28:26;;;;;;;25.10;14.70;;;3.30;99.90;;;;;;5071310;28;20051;-66
2021/01/28 08:31:20;;;;;;;29.55;15.93;;;3.30;99.90;;;;;;5052123;28;20411;-66
2021/01/28 08:33:57;;;;;;;28.23;15.25;;;3.30;99.90;;;;;;5066287;28;20052;-65
2021/01/28 08:36:30;;;;;;;31.27;17.25;;;3.40;99.90;;;;;;5069290;28;20048;-66
2021/01/28 08:39:28;;;;;;;32.03;17.15;;;3.40;99.90;;;;;;5072238;28;20048;-65
2021/01/28 08:42:10;;;;;;;32.55;16.13;;;3.40;99.90;;;;;;5069719;28;20040;-65
2021/01/28 08:44:39;;;;;;;29.77;16.45;;;3.50;99.90;;;;;;5068751;28;20415;-65
2021/01/28 08:47:14;;;;;;;27.42;16.33;;;3.50;99.90;;;;;;5068770;28;20545;-63
2021/01/28 08:49:42;;;;;;;31.90;17.52;;;3.50;99.90;;;;;;5069101;28;20049;-65
2021/01/28 08:52:16;;;;;;;29.73;16.40;;;3.50;99.90;;;;;;5070185;28;20056;-66
2021/01/28 08:54:46;;;;;;;31.52;16.40;;;3.60;99.90;;;;;;5070690;28;20048;-65
2021/01/28 08:57:17;;;;;;;28.67;16.02;;;3.60;99.90;;;;;;5060772;28;20052;-65
2021/01/28 08:59:57;;;;;;;34.25;17.42;;;3.60;99.90;;;;;;5071559;28;20549;-67
2021/01/28 09:02:30;;;;;;;30.80;17.30;;;3.60;99.90;;;;;;5068500;28;20055;-64
2021/01/28 09:05:02;;;;;;;29.67;16.55;;;3.60;99.90;;;;;;5071189;28;20049;-65
2021/01/28 09:07:50;;;;;;;31.42;16.52;;;3.60;99.90;;;;;;5070783;28;20060;-64
2021/01/28 09:10:34;;;;;;;33.33;17.75;;;3.70;99.90;;;;;;5069213;28;20062;-64
2021/01/28 09:13:30;;;;;;;35.47;17.33;;;3.60;99.90;;;;;;5071116;28;20055;-65
2021/01/28 09:16:06;;;;;;;32.92;17.00;;;3.60;99.90;;;;;;5059553;28;20052;-65
2021/01/28 09:18:46;;;;;;;37.60;18.27;;;3.60;99.90;;;;;;5071067;28;20552;-66
2021/01/28 09:21:15;;;;;;;28.88;15.77;;;3.60;99.90;;;;;;5068474;28;20052;-66
2021/01/28 09:23:57;;;;;;;33.80;18.23;;;3.60;99.90;;;;;;5070783;28;20044;-66
2021/01/28 09:26:30;;;;;;;36.63;17.75;;;3.60;99.90;;;;;;5069142;28;20083;-66
2021/01/28 09:29:08;;;;;;;37.67;17.40;;;3.60;99.90;;;;;;5070776;28;20877;-65
2021/01/28 09:31:36;;;;;;;30.60;16.50;;;3.60;99.90;;;;;;5069873;28;20071;-65
2021/01/28 09:34:15;;;;;;;29.30;15.00;;;3.60;99.90;;;;;;5071181;28;20400;-65
2021/01/28 09:36:42;;;;;;;29.13;16.13;;;3.60;99.90;;;;;;5067799;28;20510;-66
2021/01/28 09:39:28;;;;;;;30.15;15.05;;;3.60;99.90;;;;;;5070358;28;20063;-66
2021/01/28 09:41:54;;;;;;;32.20;15.13;;;3.60;99.90;;;;;;5068141;28;20044;-65
2021/01/28 09:44:31;;;;;;;29.98;15.68;;;3.60;99.90;;;;;;5068932;28;20515;-65
2021/01/28 09:47:19;;;;;;;27.77;14.60;;;3.70;99.90;;;;;;5070103;28;20056;-65
2021/01/28 09:49:49;;;;;;;27.75;14.13;;;3.60;99.90;;;;;;5056794;28;20710;-65
2021/01/28 09:52:20;;;;;;;26.50;14.88;;;3.60;99.90;;;;;;5068429;28;20163;-63
2021/01/28 09:54:56;;;;;;;25.52;13.95;;;3.60;99.90;;;;;;5061989;28;20056;-67
2021/01/28 09:57:23;;;;;;;29.63;13.60;;;3.60;99.90;;;;;;5069374;28;20493;-65
2021/01/28 09:59:50;;;;;;;23.70;12.77;;;3.70;99.90;;;;;;5070286;28;20048;-65
2021/01/28 10:02:22;;;;;;;25.25;13.75;;;3.70;99.90;;;;;;5068271;28;20071;-66
2021/01/28 10:04:49;;;;;;;23.30;13.38;;;3.70;99.90;;;;;;5068334;28;20056;-65
2021/01/28 10:07:16;;;;;;;22.83;12.93;;;3.70;99.90;;;;;;5068346;28;20136;-66
2021/01/28 10:09:43;;;;;;;21.52;12.05;;;3.70;99.90;;;;;;5069823;28;20060;-65
2021/01/28 10:12:12;;;;;;;21.63;11.35;;;3.70;99.90;;;;;;5069387;28;20419;-66
2021/01/28 10:14:40;;;;;;;20.08;11.68;;;3.70;99.90;;;;;;5069357;28;20048;-66
2021/01/28 10:17:06;;;;;;;18.63;10.52;;;3.70;99.90;;;;;;5064085;28;20426;-66
2021/01/28 10:19:33;;;;;;;22.63;11.18;;;3.70;99.90;;;;;;5069544;28;20445;-65
2021/01/28 10:21:59;;;;;;;21.50;11.50;;;3.70;99.90;;;;;;5068595;28;20522;-65
2021/01/28 10:24:27;;;;;;;20.60;10.50;;;3.70;99.90;;;;;;5069461;28;20056;-66
2021/01/28 10:26:53;;;;;;;21.38;9.90;;;3.70;99.90;;;;;;5069484;28;20635;-65
2021/01/28 10:29:20;;;;;;;16.98;9.55;;;3.70;99.90;;;;;;5069476;28;20055;-65
2021/01/28 10:31:46;;;;;;;17.73;10.05;;;3.70;99.90;;;;;;5069380;28;20063;-65
2021/01/28 10:34:13;;;;;;;16.27;9.85;;;3.70;99.90;;;;;;5059913;28;20044;-64
2021/01/28 10:36:39;;;;;;;21.58;10.30;;;3.70;99.90;;;;;;5068248;28;20061;-64
2021/01/28 10:39:06;;;;;;;20.77;11.65;;;3.70;99.90;;;;;;5068152;28;20045;-64
2021/01/28 10:41:32;;;;;;;19.52;10.02;;;3.70;99.90;;;;;;5067708;28;20479;-67
2021/01/28 10:43:59;;;;;;;19.23;9.80;;;3.70;99.90;;;;;;5070135;28;20135;-64
2021/01/28 10:46:26;;;;;;;18.17;8.65;;;3.70;99.90;;;;;;5068147;28;20052;-64
2021/01/28 10:48:53;;;;;;;20.77;9.23;;;3.70;99.90;;;;;;5068200;28;20052;-63
2021/01/28 10:51:20;;;;;;;16.00;9.20;;;3.80;99.90;;;;;;5068788;28;20048;-63
2021/01/28 10:53:47;;;;;;;18.20;9.20;;;3.70;99.90;;;;;;5063605;28;20048;-65
2021/01/28 10:56:14;;;;;;;17.08;8.82;;;3.70;99.90;;;;;;5064324;28;20060;-64
2021/01/28 10:58:40;;;;;;;15.38;8.82;;;3.70;99.90;;;;;;5069951;28;20049;-65
2021/01/28 11:01:07;;;;;;;14.43;7.75;;;3.70;99.90;;;;;;5069276;28;20048;-65
2021/01/28 11:03:35;;;;;;;15.25;8.77;;;3.70;99.90;;;;;;5072660;28;20041;-64
2021/01/28 11:06:02;;;;;;;17.85;9.02;;;3.70;99.90;;;;;;5071653;28;20053;-66
2021/01/28 11:08:30;;;;;;;16.60;9.15;;;3.70;99.90;;;;;;5074990;28;20072;-66
2021/01/28 11:10:57;;;;;;;15.73;9.13;;;3.70;99.90;;;;;;5077723;28;20163;-64
2021/01/28 11:13:24;;;;;;;16.38;8.50;;;3.70;99.90;;;;;;5095001;28;20053;-66
2021/01/28 11:15:51;;;;;;;15.02;7.68;;;3.70;99.90;;;;;;5078766;28;20109;-65
2021/01/28 11:18:18;;;;;;;12.68;7.57;;;3.70;99.90;;;;;;5081191;28;20052;-64
2021/01/28 11:20:46;;;;;;;17.23;8.07;;;3.70;99.90;;;;;;5101630;28;20041;-65
2021/01/28 11:23:12;;;;;;;16.65;8.02;;;3.70;99.90;;;;;;5084775;28;20055;-65
2021/01/28 11:25:43;;;;;;;12.43;6.97;;;3.70;99.90;;;;;;5084346;28;20148;-64
2021/01/28 11:28:10;;;;;;;12.57;6.78;;;3.80;99.90;;;;;;5075035;28;20052;-66
2021/01/28 11:30:37;;;;;;;13.25;7.45;;;3.80;99.90;;;;;;5083151;28;20052;-66
2021/01/28 11:33:07;;;;;;;17.85;10.10;;;3.80;99.90;;;;;;5083172;28;20052;-66
2021/01/28 11:35:36;;;;;;;17.85;9.02;;;3.90;99.90;;;;;;5079127;28;20051;-65
2021/01/28 11:38:06;;;;;;;11.98;6.25;;;3.90;99.90;;;;;;5083608;28;20083;-66
2021/01/28 11:40:34;;;;;;;12.18;6.88;;;3.90;99.90;;;;;;5069063;28;20052;-66
2021/01/28 11:43:04;;;;;;;13.02;6.85;;;3.90;99.90;;;;;;5062771;28;20052;-66
2021/01/28 11:45:33;;;;;;;14.95;7.45;;;3.90;99.90;;;;;;5075558;28;20045;-65
2021/01/28 11:48:00;;;;;;;11.55;6.75;;;3.90;99.90;;;;;;5075023;28;20041;-66
2021/01/28 11:50:27;;;;;;;13.05;7.82;;;3.90;99.90;;;;;;5076286;28;20453;-67
2021/01/28 11:52:54;;;;;;;12.13;6.65;;;3.90;99.90;;;;;;5071224;28;20458;-66
2021/01/28 11:55:24;;;;;;;14.20;7.38;;;3.90;99.90;;;;;;5075731;28;20139;-65
2021/01/28 11:57:52;;;;;;;31.58;15.60;;;3.90;99.90;;;;;;5090852;28;20089;-66
2021/01/28 12:00:20;;;;;;;15.55;8.13;;;3.90;99.90;;;;;;5073601;28;20453;-64
2021/01/28 12:02:47;;;;;;;10.30;5.85;;;4.00;99.90;;;;;;5081343;28;20063;-65
2021/01/28 12:05:16;;;;;;;12.25;6.95;;;4.00;99.90;;;;;;5084408;28;20052;-64
2021/01/28 12:07:43;;;;;;;10.95;6.82;;;4.00;99.90;;;;;;5085397;28;20079;-64
2021/01/28 12:10:18;;;;;;;13.23;7.35;;;3.90;99.90;;;;;;5083455;28;20364;-64
2021/01/28 12:12:46;;;;;;;11.18;6.32;;;4.00;99.90;;;;;;5074721;28;20048;-64
2021/01/28 12:15:14;;;;;;;12.70;6.22;;;4.00;99.90;;;;;;5074059;28;20550;-64
2021/01/28 12:17:41;;;;;;;13.23;6.70;;;4.10;99.90;;;;;;5073959;28;20045;-64
2021/01/28 12:20:09;;;;;;;11.98;7.20;;;4.10;99.90;;;;;;5074509;28;20055;-64
2021/01/28 12:22:37;;;;;;;26.92;13.70;;;4.10;99.90;;;;;;5075046;28;20467;-64
2021/01/28 12:25:04;;;;;;;12.40;6.70;;;4.10;99.90;;;;;;5073341;28;20065;-64
2021/01/28 12:27:31;;;;;;;11.02;6.10;;;4.10;99.90;;;;;;5073273;28;20059;-64
2021/01/28 12:30:00;;;;;;;9.88;5.95;;;4.10;99.90;;;;;;5072133;28;20070;-65
2021/01/28 12:32:27;;;;;;;11.20;6.25;;;4.10;99.90;;;;;;5070885;28;20049;-64
2021/01/28 12:34:54;;;;;;;12.27;6.55;;;4.10;99.90;;;;;;5070979;28;20490;-64
2021/01/28 12:37:22;;;;;;;9.63;5.88;;;4.10;99.90;;;;;;5070963;28;20247;-64
2021/01/28 12:39:48;;;;;;;10.98;5.28;;;4.20;99.90;;;;;;5072262;28;20044;-64
2021/01/28 12:42:14;;;;;;;11.70;5.90;;;4.20;99.90;;;;;;5071562;28;20657;-64
2021/01/28 12:44:41;;;;;;;10.85;5.80;;;4.30;99.90;;;;;;5071979;28;20072;-64
2021/01/28 12:47:08;;;;;;;14.13;7.50;;;4.30;99.90;;;;;;5071372;28;20052;-64
2021/01/28 12:49:35;;;;;;;13.15;6.22;;;4.50;99.90;;;;;;5072610;28;20056;-65
2021/01/28 12:52:01;;;;;;;11.25;5.93;;;4.50;99.90;;;;;;5071225;28;20044;-65
2021/01/28 12:54:27;;;;;;;8.38;5.00;;;4.60;99.90;;;;;;5069177;28;20037;-65
2021/01/28 12:56:54;;;;;;;10.57;6.05;;;4.70;99.90;;;;;;5071463;28;20383;-64
2021/01/28 12:59:21;;;;;;;9.88;5.18;;;4.60;99.90;;;;;;5072205;28;20098;-64
2021/01/28 13:01:48;;;;;;;8.95;5.00;;;4.70;99.90;;;;;;5071496;28;20422;-64
2021/01/28 13:04:14;;;;;;;11.23;6.35;;;4.70;99.90;;;;;;5071488;28;20144;-66